sensor_id;sensor_type;location;lat;lon;timestamp;temperature;humidity
67870;DHT22;54673;52.262;6.830;2023-10-09T00:01:03;14.60;92.00
67870;DHT22;54673;52.262;6.830;2023-10-09T00:03:30;14.60;92.10
67870;DHT22;54673;52.262;6.830;2023-10-09T00:05:57;14.60;92.20
67870;DHT22;54673;52.262;6.830;2023-10-09T00:08:23;15.40;92.30
67870;DHT22;54673;52.262;6.830;2023-10-09T00:10:59;14.50;92.20
67870;DHT22;54673;52.262;6.830;2023-10-09T00:13:39;14.70;92.70
67870;DHT22;54673;52.262;6.830;2023-10-09T00:16:15;14.50;92.40
67870;DHT22;54673;52.262;6.830;2023-10-09T00:18:49;14.40;92.10
67870;DHT22;54673;52.262;6.830;2023-10-09T00:21:19;14.50;92.40
67870;DHT22;54673;52.262;6.830;2023-10-09T00:23:49;14.50;92.40
67870;DHT22;54673;52.262;6.830;2023-10-09T00:26:27;15.10;92.70
67870;DHT22;54673;52.262;6.830;2023-10-09T00:28:56;14.40;92.50
67870;DHT22;54673;52.262;6.830;2023-10-09T00:31:22;14.40;92.50
67870;DHT22;54673;52.262;6.830;2023-10-09T00:33:59;14.50;92.70
67870;DHT22;54673;52.262;6.830;2023-10-09T00:36:30;14.50;92.80
67870;DHT22;54673;52.262;6.830;2023-10-09T00:38:58;14.40;93.10
67870;DHT22;54673;52.262;6.830;2023-10-09T00:41:26;14.30;92.90
67870;DHT22;54673;52.262;6.830;2023-10-09T00:43:54;14.60;93.20
67870;DHT22;54673;52.262;6.830;2023-10-09T00:46:24;15.10;93.40
67870;DHT22;54673;52.262;6.830;2023-10-09T00:48:53;14.30;93.30
67870;DHT22;54673;52.262;6.830;2023-10-09T00:51:19;14.30;93.30
67870;DHT22;54673;52.262;6.830;2023-10-09T00:53:52;14.40;93.40
67870;DHT22;54673;52.262;6.830;2023-10-09T00:56:22;14.80;93.30
67870;DHT22;54673;52.262;6.830;2023-10-09T00:58:51;14.30;93.40
67870;DHT22;54673;52.262;6.830;2023-10-09T01:01:24;14.40;93.50
67870;DHT22;54673;52.262;6.830;2023-10-09T01:03:54;14.20;93.40
67870;DHT22;54673;52.262;6.830;2023-10-09T01:06:19;14.20;93.40
67870;DHT22;54673;52.262;6.830;2023-10-09T01:08:58;14.20;93.30
67870;DHT22;54673;52.262;6.830;2023-10-09T01:11:35;14.20;93.50
67870;DHT22;54673;52.262;6.830;2023-10-09T01:14:07;14.50;93.70
67870;DHT22;54673;52.262;6.830;2023-10-09T01:16:32;14.20;93.60
67870;DHT22;54673;52.262;6.830;2023-10-09T01:18:58;14.30;93.50
67870;DHT22;54673;52.262;6.830;2023-10-09T01:21:25;14.20;93.80
67870;DHT22;54673;52.262;6.830;2023-10-09T01:23:54;14.20;93.80
67870;DHT22;54673;52.262;6.830;2023-10-09T01:26:34;14.20;93.90
67870;DHT22;54673;52.262;6.830;2023-10-09T01:29:22;14.20;93.80
67870;DHT22;54673;52.262;6.830;2023-10-09T01:31:54;14.20;93.70
67870;DHT22;54673;52.262;6.830;2023-10-09T01:34:43;14.20;93.90
67870;DHT22;54673;52.262;6.830;2023-10-09T01:37:23;14.20;94.10
67870;DHT22;54673;52.262;6.830;2023-10-09T01:39:56;14.20;94.00
67870;DHT22;54673;52.262;6.830;2023-10-09T01:42:41;14.20;93.80
67870;DHT22;54673;52.262;6.830;2023-10-09T01:45:12;14.30;94.00
67870;DHT22;54673;52.262;6.830;2023-10-09T01:47:41;14.20;93.90
67870;DHT22;54673;52.262;6.830;2023-10-09T01:50:11;14.20;94.10
67870;DHT22;54673;52.262;6.830;2023-10-09T01:52:44;14.20;94.00
67870;DHT22;54673;52.262;6.830;2023-10-09T01:55:10;14.20;94.10
67870;DHT22;54673;52.262;6.830;2023-10-09T01:57:55;14.20;93.90
67870;DHT22;54673;52.262;6.830;2023-10-09T02:00:23;15.30;94.60
67870;DHT22;54673;52.262;6.830;2023-10-09T02:02:50;14.20;94.10
67870;DHT22;54673;52.262;6.830;2023-10-09T02:05:16;14.30;94.50
67870;DHT22;54673;52.262;6.830;2023-10-09T02:07:44;14.20;94.40
67870;DHT22;54673;52.262;6.830;2023-10-09T02:10:25;14.30;94.40
67870;DHT22;54673;52.262;6.830;2023-10-09T02:15:28;14.20;94.60
67870;DHT22;54673;52.262;6.830;2023-10-09T02:18:12;14.20;94.40
67870;DHT22;54673;52.262;6.830;2023-10-09T02:20:45;14.30;94.30
67870;DHT22;54673;52.262;6.830;2023-10-09T02:23:21;14.20;94.40
67870;DHT22;54673;52.262;6.830;2023-10-09T02:25:56;14.30;94.30
67870;DHT22;54673;52.262;6.830;2023-10-09T02:28:21;14.30;94.80
67870;DHT22;54673;52.262;6.830;2023-10-09T02:30:47;14.30;94.70
67870;DHT22;54673;52.262;6.830;2023-10-09T02:33:17;14.30;94.60
67870;DHT22;54673;52.262;6.830;2023-10-09T02:35:54;14.20;94.40
67870;DHT22;54673;52.262;6.830;2023-10-09T02:38:20;14.30;94.50
67870;DHT22;54673;52.262;6.830;2023-10-09T02:40:52;14.80;94.80
67870;DHT22;54673;52.262;6.830;2023-10-09T02:43:31;14.30;94.40
67870;DHT22;54673;52.262;6.830;2023-10-09T02:46:06;14.30;94.80
67870;DHT22;54673;52.262;6.830;2023-10-09T02:48:39;14.30;94.70
67870;DHT22;54673;52.262;6.830;2023-10-09T02:51:10;14.30;94.90
67870;DHT22;54673;52.262;6.830;2023-10-09T02:53:42;14.30;94.90
67870;DHT22;54673;52.262;6.830;2023-10-09T02:56:08;14.30;94.80
67870;DHT22;54673;52.262;6.830;2023-10-09T02:58:43;14.30;95.10
67870;DHT22;54673;52.262;6.830;2023-10-09T03:01:12;14.30;94.80
67870;DHT22;54673;52.262;6.830;2023-10-09T03:03:40;14.30;94.60
67870;DHT22;54673;52.262;6.830;2023-10-09T03:06:11;14.30;94.90
67870;DHT22;54673;52.262;6.830;2023-10-09T03:08:53;14.50;94.80
67870;DHT22;54673;52.262;6.830;2023-10-09T03:11:20;14.30;94.80
67870;DHT22;54673;52.262;6.830;2023-10-09T03:13:45;14.50;95.30
67870;DHT22;54673;52.262;6.830;2023-10-09T03:16:13;14.80;95.20
67870;DHT22;54673;52.262;6.830;2023-10-09T03:18:51;14.40;95.10
67870;DHT22;54673;52.262;6.830;2023-10-09T03:21:17;14.30;95.10
67870;DHT22;54673;52.262;6.830;2023-10-09T03:23:44;14.30;95.10
67870;DHT22;54673;52.262;6.830;2023-10-09T03:26:09;14.30;95.00
67870;DHT22;54673;52.262;6.830;2023-10-09T03:28:36;14.30;95.20
67870;DHT22;54673;52.262;6.830;2023-10-09T03:31:01;15.00;95.60
67870;DHT22;54673;52.262;6.830;2023-10-09T03:33:28;14.40;95.20
67870;DHT22;54673;52.262;6.830;2023-10-09T03:36:01;14.40;95.60
67870;DHT22;54673;52.262;6.830;2023-10-09T03:38:27;14.30;95.20
67870;DHT22;54673;52.262;6.830;2023-10-09T03:41:02;14.30;95.50
67870;DHT22;54673;52.262;6.830;2023-10-09T03:43:34;14.40;95.30
67870;DHT22;54673;52.262;6.830;2023-10-09T03:46:11;14.80;95.30
67870;DHT22;54673;52.262;6.830;2023-10-09T03:48:58;14.40;95.40
67870;DHT22;54673;52.262;6.830;2023-10-09T03:51:29;14.40;95.40
67870;DHT22;54673;52.262;6.830;2023-10-09T03:53:55;14.40;95.40
67870;DHT22;54673;52.262;6.830;2023-10-09T03:56:21;14.40;95.30
67870;DHT22;54673;52.262;6.830;2023-10-09T03:58:48;14.30;95.50
67870;DHT22;54673;52.262;6.830;2023-10-09T04:01:21;14.40;95.50
67870;DHT22;54673;52.262;6.830;2023-10-09T04:03:54;14.40;95.50
67870;DHT22;54673;52.262;6.830;2023-10-09T04:06:24;14.40;95.70
67870;DHT22;54673;52.262;6.830;2023-10-09T04:08:54;14.40;95.70
67870;DHT22;54673;52.262;6.830;2023-10-09T04:11:20;14.50;95.50
67870;DHT22;54673;52.262;6.830;2023-10-09T04:13:48;14.40;95.90
67870;DHT22;54673;52.262;6.830;2023-10-09T04:16:18;14.40;95.80
67870;DHT22;54673;52.262;6.830;2023-10-09T04:18:57;14.40;96.20
67870;DHT22;54673;52.262;6.830;2023-10-09T04:21:23;14.40;95.80
67870;DHT22;54673;52.262;6.830;2023-10-09T04:24:05;14.40;96.10
67870;DHT22;54673;52.262;6.830;2023-10-09T04:26:38;14.40;95.80
67870;DHT22;54673;52.262;6.830;2023-10-09T04:29:10;14.40;95.90
67870;DHT22;54673;52.262;6.830;2023-10-09T04:32:05;14.50;95.60
67870;DHT22;54673;52.262;6.830;2023-10-09T04:34:41;14.50;95.60
67870;DHT22;54673;52.262;6.830;2023-10-09T04:37:14;15.00;96.30
67870;DHT22;54673;52.262;6.830;2023-10-09T04:39:40;14.50;96.10
67870;DHT22;54673;52.262;6.830;2023-10-09T04:42:14;14.40;96.30
67870;DHT22;54673;52.262;6.830;2023-10-09T04:45:02;14.80;96.30
67870;DHT22;54673;52.262;6.830;2023-10-09T04:47:29;14.90;96.70
67870;DHT22;54673;52.262;6.830;2023-10-09T04:50:07;14.40;95.80
67870;DHT22;54673;52.262;6.830;2023-10-09T04:52:35;14.50;96.00
67870;DHT22;54673;52.262;6.830;2023-10-09T04:55:01;14.50;96.10
67870;DHT22;54673;52.262;6.830;2023-10-09T04:57:33;14.50;96.10
67870;DHT22;54673;52.262;6.830;2023-10-09T05:00:12;15.10;96.00
67870;DHT22;54673;52.262;6.830;2023-10-09T05:02:54;14.50;96.20
67870;DHT22;54673;52.262;6.830;2023-10-09T05:05:28;14.50;96.50
67870;DHT22;54673;52.262;6.830;2023-10-09T05:08:09;14.50;96.00
67870;DHT22;54673;52.262;6.830;2023-10-09T05:10:48;14.40;96.20
67870;DHT22;54673;52.262;6.830;2023-10-09T05:13:27;14.50;95.80
67870;DHT22;54673;52.262;6.830;2023-10-09T05:18:39;14.50;96.50
67870;DHT22;54673;52.262;6.830;2023-10-09T05:21:05;14.50;96.70
67870;DHT22;54673;52.262;6.830;2023-10-09T05:23:49;14.60;96.10
67870;DHT22;54673;52.262;6.830;2023-10-09T05:26:34;14.50;96.40
67870;DHT22;54673;52.262;6.830;2023-10-09T05:29:24;14.50;96.60
67870;DHT22;54673;52.262;6.830;2023-10-09T05:32:06;14.60;96.70
67870;DHT22;54673;52.262;6.830;2023-10-09T05:34:43;14.60;96.70
67870;DHT22;54673;52.262;6.830;2023-10-09T05:37:25;14.70;96.90
67870;DHT22;54673;52.262;6.830;2023-10-09T05:39:55;14.60;96.90
67870;DHT22;54673;52.262;6.830;2023-10-09T05:45:16;14.60;96.90
67870;DHT22;54673;52.262;6.830;2023-10-09T05:48:00;14.80;96.80
67870;DHT22;54673;52.262;6.830;2023-10-09T05:50:52;14.60;96.40
67870;DHT22;54673;52.262;6.830;2023-10-09T05:53:38;14.60;96.20
67870;DHT22;54673;52.262;6.830;2023-10-09T05:56:24;14.60;96.70
67870;DHT22;54673;52.262;6.830;2023-10-09T05:59:08;14.60;96.80
67870;DHT22;54673;52.262;6.830;2023-10-09T06:01:52;14.60;96.80
67870;DHT22;54673;52.262;6.830;2023-10-09T06:04:24;14.60;96.30
67870;DHT22;54673;52.262;6.830;2023-10-09T06:07:18;14.60;96.30
67870;DHT22;54673;52.262;6.830;2023-10-09T06:09:49;14.60;96.60
67870;DHT22;54673;52.262;6.830;2023-10-09T06:12:35;14.60;96.50
67870;DHT22;54673;52.262;6.830;2023-10-09T06:15:10;14.60;96.70
67870;DHT22;54673;52.262;6.830;2023-10-09T06:17:55;14.70;96.90
67870;DHT22;54673;52.262;6.830;2023-10-09T06:20:41;14.70;97.70
67870;DHT22;54673;52.262;6.830;2023-10-09T06:23:32;14.70;97.10
67870;DHT22;54673;52.262;6.830;2023-10-09T06:26:16;14.70;96.80
67870;DHT22;54673;52.262;6.830;2023-10-09T06:28:52;14.80;97.60
67870;DHT22;54673;52.262;6.830;2023-10-09T06:31:37;14.70;97.30
67870;DHT22;54673;52.262;6.830;2023-10-09T06:34:21;15.50;97.30
67870;DHT22;54673;52.262;6.830;2023-10-09T06:36:58;14.90;98.00
67870;DHT22;54673;52.262;6.830;2023-10-09T06:39:28;14.70;97.00
67870;DHT22;54673;52.262;6.830;2023-10-09T06:42:12;14.70;96.80
67870;DHT22;54673;52.262;6.830;2023-10-09T06:45:07;14.70;97.80
67870;DHT22;54673;52.262;6.830;2023-10-09T06:47:39;14.80;97.20
67870;DHT22;54673;52.262;6.830;2023-10-09T06:50:18;14.80;97.70
67870;DHT22;54673;52.262;6.830;2023-10-09T06:52:53;14.80;97.20
67870;DHT22;54673;52.262;6.830;2023-10-09T06:55:23;14.80;96.90
67870;DHT22;54673;52.262;6.830;2023-10-09T06:58:00;14.80;97.60
67870;DHT22;54673;52.262;6.830;2023-10-09T07:00:39;14.80;99.00
67870;DHT22;54673;52.262;6.830;2023-10-09T07:03:39;14.80;97.80
67870;DHT22;54673;52.262;6.830;2023-10-09T07:06:18;14.80;98.50
67870;DHT22;54673;52.262;6.830;2023-10-09T07:09:10;14.80;97.10
67870;DHT22;54673;52.262;6.830;2023-10-09T07:11:47;14.80;97.20
67870;DHT22;54673;52.262;6.830;2023-10-09T07:14:23;14.80;98.70
67870;DHT22;54673;52.262;6.830;2023-10-09T07:16:58;14.90;98.20
67870;DHT22;54673;52.262;6.830;2023-10-09T07:19:29;14.90;97.40
67870;DHT22;54673;52.262;6.830;2023-10-09T07:22:08;15.10;98.40
67870;DHT22;54673;52.262;6.830;2023-10-09T07:24:46;14.90;97.40
67870;DHT22;54673;52.262;6.830;2023-10-09T07:27:31;14.90;97.50
67870;DHT22;54673;52.262;6.830;2023-10-09T07:30:10;14.90;97.30
67870;DHT22;54673;52.262;6.830;2023-10-09T07:32:59;14.90;98.70
67870;DHT22;54673;52.262;6.830;2023-10-09T07:35:44;15.00;98.70
67870;DHT22;54673;52.262;6.830;2023-10-09T07:38:16;14.90;97.80
67870;DHT22;54673;52.262;6.830;2023-10-09T07:40:46;14.90;98.20
67870;DHT22;54673;52.262;6.830;2023-10-09T07:43:28;15.30;99.20
67870;DHT22;54673;52.262;6.830;2023-10-09T07:46:02;15.00;99.90
67870;DHT22;54673;52.262;6.830;2023-10-09T07:48:27;15.20;99.90
67870;DHT22;54673;52.262;6.830;2023-10-09T07:51:11;15.20;99.90
67870;DHT22;54673;52.262;6.830;2023-10-09T07:53:36;15.20;99.90
67870;DHT22;54673;52.262;6.830;2023-10-09T07:56:09;15.20;99.10
67870;DHT22;54673;52.262;6.830;2023-10-09T07:58:34;15.90;98.70
67870;DHT22;54673;52.262;6.830;2023-10-09T08:01:12;15.10;98.70
67870;DHT22;54673;52.262;6.830;2023-10-09T08:03:40;15.10;98.90
67870;DHT22;54673;52.262;6.830;2023-10-09T08:06:06;15.10;99.00
67870;DHT22;54673;52.262;6.830;2023-10-09T08:08:50;15.10;99.00
67870;DHT22;54673;52.262;6.830;2023-10-09T08:11:29;15.20;98.70
67870;DHT22;54673;52.262;6.830;2023-10-09T08:14:09;15.30;98.50
67870;DHT22;54673;52.262;6.830;2023-10-09T08:16:54;15.20;99.20
67870;DHT22;54673;52.262;6.830;2023-10-09T08:19:38;15.80;99.20
67870;DHT22;54673;52.262;6.830;2023-10-09T08:22:28;15.80;99.30
67870;DHT22;54673;52.262;6.830;2023-10-09T08:24:54;15.20;99.40
67870;DHT22;54673;52.262;6.830;2023-10-09T08:27:27;15.20;98.50
67870;DHT22;54673;52.262;6.830;2023-10-09T08:30:03;15.20;98.30
67870;DHT22;54673;52.262;6.830;2023-10-09T08:32:48;15.20;98.30
67870;DHT22;54673;52.262;6.830;2023-10-09T08:37:59;15.90;98.40
67870;DHT22;54673;52.262;6.830;2023-10-09T08:40:32;15.30;97.90
67870;DHT22;54673;52.262;6.830;2023-10-09T08:43:08;15.40;99.90
67870;DHT22;54673;52.262;6.830;2023-10-09T08:45:38;15.30;99.60
67870;DHT22;54673;52.262;6.830;2023-10-09T08:48:08;15.50;98.60
67870;DHT22;54673;52.262;6.830;2023-10-09T08:50:37;15.40;98.40
67870;DHT22;54673;52.262;6.830;2023-10-09T08:53:03;15.60;98.60
67870;DHT22;54673;52.262;6.830;2023-10-09T08:55:29;15.40;98.20
67870;DHT22;54673;52.262;6.830;2023-10-09T08:57:55;16.10;98.40
67870;DHT22;54673;52.262;6.830;2023-10-09T09:00:23;15.50;98.60
67870;DHT22;54673;52.262;6.830;2023-10-09T09:02:55;15.40;98.10
67870;DHT22;54673;52.262;6.830;2023-10-09T09:05:21;15.40;98.50
67870;DHT22;54673;52.262;6.830;2023-10-09T09:07:47;16.10;98.20
67870;DHT22;54673;52.262;6.830;2023-10-09T09:10:13;16.10;98.40
67870;DHT22;54673;52.262;6.830;2023-10-09T09:12:49;15.50;98.20
67870;DHT22;54673;52.262;6.830;2023-10-09T09:15:27;15.50;98.10
67870;DHT22;54673;52.262;6.830;2023-10-09T09:18:03;16.10;98.20
67870;DHT22;54673;52.262;6.830;2023-10-09T09:20:32;15.50;98.10
67870;DHT22;54673;52.262;6.830;2023-10-09T09:23:02;15.80;98.30
67870;DHT22;54673;52.262;6.830;2023-10-09T09:25:46;15.60;98.40
67870;DHT22;54673;52.262;6.830;2023-10-09T09:28:13;15.60;98.50
67870;DHT22;54673;52.262;6.830;2023-10-09T09:30:45;15.60;98.10
67870;DHT22;54673;52.262;6.830;2023-10-09T09:33:23;15.70;98.10
67870;DHT22;54673;52.262;6.830;2023-10-09T09:35:56;15.70;98.30
67870;DHT22;54673;52.262;6.830;2023-10-09T09:38:28;15.70;98.70
67870;DHT22;54673;52.262;6.830;2023-10-09T09:40:56;15.70;98.00
67870;DHT22;54673;52.262;6.830;2023-10-09T09:43:22;15.80;98.30
67870;DHT22;54673;52.262;6.830;2023-10-09T09:45:49;15.80;97.80
67870;DHT22;54673;52.262;6.830;2023-10-09T09:48:18;16.00;99.00
67870;DHT22;54673;52.262;6.830;2023-10-09T09:50:44;16.10;98.50
67870;DHT22;54673;52.262;6.830;2023-10-09T09:53:15;16.40;98.90
67870;DHT22;54673;52.262;6.830;2023-10-09T09:55:51;16.60;98.30
67870;DHT22;54673;52.262;6.830;2023-10-09T09:58:24;15.90;98.30
67870;DHT22;54673;52.262;6.830;2023-10-09T10:00:53;16.00;98.00
67870;DHT22;54673;52.262;6.830;2023-10-09T10:03:29;15.90;99.60
67870;DHT22;54673;52.262;6.830;2023-10-09T10:06:00;15.90;97.90
67870;DHT22;54673;52.262;6.830;2023-10-09T10:08:30;16.00;98.20
67870;DHT22;54673;52.262;6.830;2023-10-09T10:10:59;16.00;97.90
67870;DHT22;54673;52.262;6.830;2023-10-09T10:16:10;16.00;98.10
67870;DHT22;54673;52.262;6.830;2023-10-09T10:18:58;16.10;97.80
67870;DHT22;54673;52.262;6.830;2023-10-09T10:21:36;16.20;97.80
67870;DHT22;54673;52.262;6.830;2023-10-09T10:24:43;16.40;99.20
67870;DHT22;54673;52.262;6.830;2023-10-09T10:27:20;16.10;97.80
67870;DHT22;54673;52.262;6.830;2023-10-09T10:35:21;16.20;97.70
67870;DHT22;54673;52.262;6.830;2023-10-09T10:37:58;16.30;97.70
67870;DHT22;54673;52.262;6.830;2023-10-09T10:40:37;16.30;97.90
67870;DHT22;54673;52.262;6.830;2023-10-09T10:43:20;16.30;97.40
67870;DHT22;54673;52.262;6.830;2023-10-09T10:46:02;16.30;97.80
67870;DHT22;54673;52.262;6.830;2023-10-09T10:48:39;16.30;97.70
67870;DHT22;54673;52.262;6.830;2023-10-09T10:51:05;16.50;97.90
67870;DHT22;54673;52.262;6.830;2023-10-09T10:53:31;16.40;97.70
67870;DHT22;54673;52.262;6.830;2023-10-09T10:56:18;16.40;97.20
67870;DHT22;54673;52.262;6.830;2023-10-09T10:58:54;16.40;97.00
67870;DHT22;54673;52.262;6.830;2023-10-09T11:01:20;16.50;97.20
67870;DHT22;54673;52.262;6.830;2023-10-09T11:03:51;16.50;97.00
67870;DHT22;54673;52.262;6.830;2023-10-09T11:06:29;16.50;97.10
67870;DHT22;54673;52.262;6.830;2023-10-09T11:09:08;16.50;97.00
67870;DHT22;54673;52.262;6.830;2023-10-09T11:12:04;16.60;97.00
67870;DHT22;54673;52.262;6.830;2023-10-09T11:14:50;16.60;97.10
67870;DHT22;54673;52.262;6.830;2023-10-09T11:17:32;16.60;96.80
67870;DHT22;54673;52.262;6.830;2023-10-09T11:19:58;16.70;96.60
67870;DHT22;54673;52.262;6.830;2023-10-09T11:22:44;16.70;97.00
67870;DHT22;54673;52.262;6.830;2023-10-09T11:25:30;16.70;96.80
67870;DHT22;54673;52.262;6.830;2023-10-09T11:27:56;16.70;96.80
67870;DHT22;54673;52.262;6.830;2023-10-09T11:30:31;17.10;97.20
67870;DHT22;54673;52.262;6.830;2023-10-09T11:33:07;16.80;96.10
67870;DHT22;54673;52.262;6.830;2023-10-09T11:35:40;16.80;96.60
67870;DHT22;54673;52.262;6.830;2023-10-09T11:38:08;16.90;96.00
67870;DHT22;54673;52.262;6.830;2023-10-09T11:40:54;17.10;96.50
67870;DHT22;54673;52.262;6.830;2023-10-09T11:43:20;16.90;96.30
67870;DHT22;54673;52.262;6.830;2023-10-09T11:45:51;16.90;95.90
67870;DHT22;54673;52.262;6.830;2023-10-09T11:48:20;16.90;96.50
67870;DHT22;54673;52.262;6.830;2023-10-09T11:50:51;17.00;96.50
67870;DHT22;54673;52.262;6.830;2023-10-09T11:53:41;17.10;96.40
67870;DHT22;54673;52.262;6.830;2023-10-09T11:56:21;17.00;95.80
67870;DHT22;54673;52.262;6.830;2023-10-09T11:58:48;17.10;96.00
67870;DHT22;54673;52.262;6.830;2023-10-09T12:01:15;17.10;95.60
67870;DHT22;54673;52.262;6.830;2023-10-09T12:03:43;17.40;95.60
67870;DHT22;54673;52.262;6.830;2023-10-09T12:06:09;17.10;95.50
67870;DHT22;54673;52.262;6.830;2023-10-09T12:08:39;17.20;95.40
67870;DHT22;54673;52.262;6.830;2023-10-09T12:11:07;17.20;95.30
67870;DHT22;54673;52.262;6.830;2023-10-09T12:13:38;17.20;95.50
67870;DHT22;54673;52.262;6.830;2023-10-09T12:16:04;17.20;95.90
67870;DHT22;54673;52.262;6.830;2023-10-09T12:18:35;17.30;95.30
67870;DHT22;54673;52.262;6.830;2023-10-09T12:21:02;17.30;95.50
67870;DHT22;54673;52.262;6.830;2023-10-09T12:23:29;17.30;95.00
67870;DHT22;54673;52.262;6.830;2023-10-09T12:26:04;17.30;97.00
67870;DHT22;54673;52.262;6.830;2023-10-09T12:28:30;17.40;95.00
67870;DHT22;54673;52.262;6.830;2023-10-09T12:30:59;17.40;94.60
67870;DHT22;54673;52.262;6.830;2023-10-09T12:33:27;17.40;94.50
67870;DHT22;54673;52.262;6.830;2023-10-09T12:35:54;17.40;95.10
67870;DHT22;54673;52.262;6.830;2023-10-09T12:38:29;17.50;95.10
67870;DHT22;54673;52.262;6.830;2023-10-09T12:41:05;17.50;94.40
67870;DHT22;54673;52.262;6.830;2023-10-09T12:43:41;17.50;94.40
67870;DHT22;54673;52.262;6.830;2023-10-09T12:46:08;17.60;94.20
67870;DHT22;54673;52.262;6.830;2023-10-09T12:48:34;17.50;94.40
67870;DHT22;54673;52.262;6.830;2023-10-09T12:51:01;17.60;94.30
67870;DHT22;54673;52.262;6.830;2023-10-09T12:53:32;17.60;94.30
67870;DHT22;54673;52.262;6.830;2023-10-09T12:55:58;17.70;94.20
67870;DHT22;54673;52.262;6.830;2023-10-09T12:58:24;17.60;94.00
67870;DHT22;54673;52.262;6.830;2023-10-09T13:00:52;17.60;94.00
67870;DHT22;54673;52.262;6.830;2023-10-09T13:03:18;17.70;94.20
67870;DHT22;54673;52.262;6.830;2023-10-09T13:05:50;17.70;93.80
67870;DHT22;54673;52.262;6.830;2023-10-09T13:08:28;17.60;94.40
67870;DHT22;54673;52.262;6.830;2023-10-09T13:11:10;17.70;94.20
67870;DHT22;54673;52.262;6.830;2023-10-09T13:13:40;17.70;94.30
67870;DHT22;54673;52.262;6.830;2023-10-09T13:16:17;17.70;94.50
67870;DHT22;54673;52.262;6.830;2023-10-09T13:18:58;17.70;93.80
67870;DHT22;54673;52.262;6.830;2023-10-09T13:21:31;17.70;94.10
67870;DHT22;54673;52.262;6.830;2023-10-09T13:24:00;17.70;94.00
67870;DHT22;54673;52.262;6.830;2023-10-09T13:26:28;17.70;93.70
67870;DHT22;54673;52.262;6.830;2023-10-09T13:28:56;17.70;93.90
67870;DHT22;54673;52.262;6.830;2023-10-09T13:31:23;17.80;94.10
67870;DHT22;54673;52.262;6.830;2023-10-09T13:33:56;17.80;94.50
67870;DHT22;54673;52.262;6.830;2023-10-09T13:36:28;17.80;94.10
67870;DHT22;54673;52.262;6.830;2023-10-09T13:39:01;17.80;93.80
67870;DHT22;54673;52.262;6.830;2023-10-09T13:41:51;17.90;93.80
67870;DHT22;54673;52.262;6.830;2023-10-09T13:44:26;18.90;94.30
67870;DHT22;54673;52.262;6.830;2023-10-09T13:47:02;17.90;93.70
67870;DHT22;54673;52.262;6.830;2023-10-09T13:49:31;18.00;93.80
67870;DHT22;54673;52.262;6.830;2023-10-09T13:52:00;17.90;94.00
67870;DHT22;54673;52.262;6.830;2023-10-09T13:54:29;18.00;94.00
67870;DHT22;54673;52.262;6.830;2023-10-09T13:57:03;18.00;93.90
67870;DHT22;54673;52.262;6.830;2023-10-09T13:59:30;18.00;94.00
67870;DHT22;54673;52.262;6.830;2023-10-09T14:01:56;18.10;93.70
67870;DHT22;54673;52.262;6.830;2023-10-09T14:04:22;18.10;95.70
67870;DHT22;54673;52.262;6.830;2023-10-09T14:06:49;18.10;93.70
67870;DHT22;54673;52.262;6.830;2023-10-09T14:09:22;18.10;93.80
67870;DHT22;54673;52.262;6.830;2023-10-09T14:12:01;18.10;93.70
67870;DHT22;54673;52.262;6.830;2023-10-09T14:17:13;18.20;93.50
67870;DHT22;54673;52.262;6.830;2023-10-09T14:19:43;18.20;93.40
67870;DHT22;54673;52.262;6.830;2023-10-09T14:22:22;18.30;93.50
67870;DHT22;54673;52.262;6.830;2023-10-09T14:24:52;18.30;94.00
67870;DHT22;54673;52.262;6.830;2023-10-09T14:27:21;18.30;93.50
67870;DHT22;54673;52.262;6.830;2023-10-09T14:29:49;18.30;93.40
67870;DHT22;54673;52.262;6.830;2023-10-09T14:32:15;18.30;93.10
67870;DHT22;54673;52.262;6.830;2023-10-09T14:34:42;18.30;93.20
67870;DHT22;54673;52.262;6.830;2023-10-09T14:37:12;18.40;93.50
67870;DHT22;54673;52.262;6.830;2023-10-09T14:39:41;18.40;93.10
67870;DHT22;54673;52.262;6.830;2023-10-09T14:42:07;18.40;93.30
67870;DHT22;54673;52.262;6.830;2023-10-09T14:44:36;18.40;93.20
67870;DHT22;54673;52.262;6.830;2023-10-09T14:47:06;18.40;93.30
67870;DHT22;54673;52.262;6.830;2023-10-09T14:49:33;18.40;93.40
67870;DHT22;54673;52.262;6.830;2023-10-09T14:52:20;18.40;93.20
67870;DHT22;54673;52.262;6.830;2023-10-09T14:54:47;18.50;93.10
67870;DHT22;54673;52.262;6.830;2023-10-09T14:57:13;18.50;93.40
67870;DHT22;54673;52.262;6.830;2023-10-09T14:59:38;18.50;93.10
67870;DHT22;54673;52.262;6.830;2023-10-09T15:02:05;18.50;93.20
67870;DHT22;54673;52.262;6.830;2023-10-09T15:04:31;18.50;93.50
67870;DHT22;54673;52.262;6.830;2023-10-09T15:06:57;18.50;93.30
67870;DHT22;54673;52.262;6.830;2023-10-09T15:09:23;18.50;94.60
67870;DHT22;54673;52.262;6.830;2023-10-09T15:11:50;18.60;96.40
67870;DHT22;54673;52.262;6.830;2023-10-09T15:14:17;18.60;96.80
67870;DHT22;54673;52.262;6.830;2023-10-09T15:16:44;18.60;95.20
67870;DHT22;54673;52.262;6.830;2023-10-09T15:19:11;18.60;94.50
67870;DHT22;54673;52.262;6.830;2023-10-09T15:21:38;18.60;94.80
67870;DHT22;54673;52.262;6.830;2023-10-09T15:24:12;18.60;94.40
67870;DHT22;54673;52.262;6.830;2023-10-09T15:26:45;18.60;94.20
67870;DHT22;54673;52.262;6.830;2023-10-09T15:29:18;18.60;94.10
67870;DHT22;54673;52.262;6.830;2023-10-09T15:31:45;18.60;93.90
67870;DHT22;54673;52.262;6.830;2023-10-09T15:34:12;18.60;93.90
67870;DHT22;54673;52.262;6.830;2023-10-09T15:36:38;18.60;94.60
67870;DHT22;54673;52.262;6.830;2023-10-09T15:39:05;18.60;94.50
67870;DHT22;54673;52.262;6.830;2023-10-09T15:41:33;19.10;94.40
67870;DHT22;54673;52.262;6.830;2023-10-09T15:44:00;18.60;93.90
67870;DHT22;54673;52.262;6.830;2023-10-09T15:46:26;18.50;94.30
67870;DHT22;54673;52.262;6.830;2023-10-09T15:48:52;18.60;93.80
67870;DHT22;54673;52.262;6.830;2023-10-09T15:51:19;18.60;94.10
67870;DHT22;54673;52.262;6.830;2023-10-09T15:53:45;18.60;94.00
67870;DHT22;54673;52.262;6.830;2023-10-09T15:56:11;18.50;94.20
67870;DHT22;54673;52.262;6.830;2023-10-09T15:58:41;18.50;93.90
67870;DHT22;54673;52.262;6.830;2023-10-09T16:01:20;18.50;94.20
67870;DHT22;54673;52.262;6.830;2023-10-09T16:03:48;18.50;94.20
67870;DHT22;54673;52.262;6.830;2023-10-09T16:06:14;18.50;93.90
67870;DHT22;54673;52.262;6.830;2023-10-09T16:08:46;18.50;93.90
67870;DHT22;54673;52.262;6.830;2023-10-09T16:11:22;18.60;94.60
67870;DHT22;54673;52.262;6.830;2023-10-09T16:13:52;18.50;94.00
67870;DHT22;54673;52.262;6.830;2023-10-09T16:16:29;18.50;94.60
67870;DHT22;54673;52.262;6.830;2023-10-09T16:18:55;18.50;94.30
67870;DHT22;54673;52.262;6.830;2023-10-09T16:21:25;18.50;94.30
67870;DHT22;54673;52.262;6.830;2023-10-09T16:23:51;18.50;94.20
67870;DHT22;54673;52.262;6.830;2023-10-09T16:26:17;18.50;94.90
67870;DHT22;54673;52.262;6.830;2023-10-09T16:28:43;18.00;94.10